Redwood City, CA (94065)

9:48 AM PST on January 29, 2015 (GMT -0800)
Neighborhood 4 | Change Station
CLOSE
Current Station
Personal Weather Station
Location: Foster City, CA
Elevation: 7 ft
Nearby Weather Stations
Active Advisory: Dense Fog Advisory

Elev 7 ft 37.55 °N, 122.26 °W | Updated 3 seconds ago

Mostly Cloudy
Mostly Cloudy
52.0 °F
Feels Like 52.0 °F
N
0.0
Wind Variable Wind from WSW
Gusts 0.0 mph

Today
High -- | Low -- °F
--% Chance of Precip.
Yesterday
High -- | Low -- °F
Precip. -- in
7:15 AM 5:29 PM
Waxing Gibbous, 76% visible
Pressure 30.17 in
Visibility 1.5 miles
Clouds Mostly Cloudy 200 ft
Dew Point 51 °F
Humidity 95%
Rainfall 0.00 in
Snow Depth Not available.
UV 1.0 out of 12
Pollen 5.20 out of 12
Air Quality Not available.
Flu Activity Not available.
SPECI KSQL 291736Z 00000KT 1 1/2SM BR BKN002 11/11 A3017

More Conditions Fewer Conditions

Pressure 30.17 in
Visibility 1.5 miles
Clouds Mostly Cloudy 200 ft
Dew Point 51 °F
Humidity 95%
Rainfall 0.00 in
Snow Depth Not available.
UV 1.0 out of 12
Pollen 5.20 out of 12
Air Quality Not available.
Flu Activity Not available.
SPECI KSQL 291736Z 00000KT 1 1/2SM BR BKN002 11/11 A3017

More Conditions Fewer Conditions

10-Day Weather Forecast

Almanac

Astronomy

Jan. 29, 2015 Rise Set
Actual Time
Civil Twilight
Nautical Twilight
Astronomical Twilight
Moon
Length of Visible Light
Length of Day
Tomorrow will be .
, % of the Moon is Illuminated

Today's Extremes

State Highs State Lows

Community

WunderPhotos

Upload Photos

1,791,501 photos uploaded!

WunderBlogs® & News

Nearby

Air Quality

  Air Quality AQ Index Pollutant
Not available.

Snow Depth

Station Depth Elevation

Earthquake Activity

City Distance Mag. Time & Date
Minimum magnitude displayed is 2.5.

Coastal Water Temperatures

Place Temperature

Nearby Weather Stations